Terminal Aerodrome Forecast
Issued by NWS Cleveland, OH

Home | Current Version | Previous Version | Text Only | Print | Product List | Glossary On
Versions: 1 2 3 4 5 6 7 8 9 10 11 12 13 14 15 16 17 18 19 20
279
FTUS41 KCLE 250537
TAFERI
TAF
KERI 250537Z 2506/2606 19012KT P6SM -SHRA VCTS SCT045CB BKN150
      TEMPO 2506/2509 26020G30KT 3SM TSRA BKN025CB
     FM250900 23010KT P6SM VCSH BKN015
     FM251400 24015G20KT P6SM SCT010 BKN040
     FM252200 25018G25KT 6SM -SHSN BKN010=

USA.gov is the U.S. government's official web portal to all federal, state and local government web resources and services.